Time;durP1;ratioP1;P1;durP2;ratioP2;P2;SDS_P1;SDS_P2;PMS_P1;PMS_P2;Temp;Humidity;BMP_temperature;BMP_pressure;BME280_temperature;BME280_humidity;BME280_pressure;Samples;Min_cycle;Max_cycle;Signal;HPM_P1;HPM_P2
2023/07/07 00:01:18;;;;;;;14.70;13.80;;;15.00;99.90;;;;;;5079863;28;20236;-49
2023/07/07 00:03:43;;;;;;;15.10;14.00;;;15.00;99.90;;;;;;5088389;28;20187;-46
2023/07/07 00:06:09;;;;;;;14.73;13.83;;;14.90;99.90;;;;;;5089010;28;20430;-50
2023/07/07 00:08:35;;;;;;;14.70;13.80;;;14.90;1.00;;;;;;5090414;28;20687;-49
2023/07/07 00:11:01;;;;;;;14.47;13.57;;;14.80;1.00;;;;;;5090165;28;20267;-48
2023/07/07 00:13:27;;;;;;;14.87;13.97;;;14.80;15.60;;;;;;5090194;28;20509;-51
2023/07/07 00:16:03;;;;;;;15.60;14.63;;;14.80;99.90;;;;;;5090411;28;20585;-46
2023/07/07 00:18:29;;;;;;;15.07;14.10;;;14.70;1.00;;;;;;5089973;28;20219;-49
2023/07/07 00:20:56;;;;;;;14.93;14.03;;;14.70;99.90;;;;;;5090019;28;20411;-46
2023/07/07 00:23:21;;;;;;;15.07;14.07;;;14.60;1.00;;;;;;5087254;28;20912;-47
2023/07/07 00:26:00;;;;;;;15.10;14.17;;;14.60;1.00;;;;;;5079210;28;20470;-50
2023/07/07 00:28:26;;;;;;;15.00;13.73;;;14.50;1.00;;;;;;5089825;28;20206;-49
2023/07/07 00:30:52;;;;;;;14.87;13.90;;;14.50;1.00;;;;;;5090070;28;20447;-48
2023/07/07 00:33:17;;;;;;;15.57;14.30;;;14.40;11.50;;;;;;5089725;28;20263;-51
2023/07/07 00:35:48;;;;;;;15.07;13.97;;;14.40;1.00;;;;;;5089752;28;20259;-52
2023/07/07 00:38:14;;;;;;;14.63;13.73;;;14.40;1.00;;;;;;5089726;28;20202;-46
2023/07/07 00:40:39;;;;;;;14.80;13.90;;;14.40;99.90;;;;;;5089780;28;20423;-51
2023/07/07 00:43:17;;;;;;;14.90;14.00;;;14.30;1.00;;;;;;5089461;28;20847;-47
2023/07/07 00:45:43;;;;;;;14.70;13.80;;;14.30;1.00;;;;;;5088963;28;20176;-47
2023/07/07 00:48:24;;;;;;;15.80;14.60;;;14.20;99.90;;;;;;5076179;28;20476;-48
2023/07/07 00:50:54;;;;;;;15.20;14.30;;;14.20;1.00;;;;;;5089470;28;20552;-47
2023/07/07 00:53:21;;;;;;;15.37;14.33;;;14.20;1.00;;;;;;5083708;28;20431;-48
2023/07/07 00:55:49;;;;;;;15.10;14.10;;;14.10;1.00;;;;;;5086474;28;20782;-47
2023/07/07 00:58:19;;;;;;;15.10;14.20;;;14.10;1.00;;;;;;5089348;28;20803;-50
2023/07/07 01:00:57;;;;;;;15.67;14.67;;;14.00;99.90;;;;;;5079347;28;20473;-46
2023/07/07 01:03:31;;;;;;;15.07;14.17;;;14.00;99.90;;;;;;5089266;28;20463;-48
2023/07/07 01:05:59;;;;;;;14.70;13.80;;;13.90;1.00;;;;;;5089378;28;20418;-45
2023/07/07 01:08:25;;;;;;;15.10;14.20;;;13.90;1.00;;;;;;5089157;28;21005;-46
2023/07/07 01:10:50;;;;;;;14.37;13.57;;;13.90;96.90;;;;;;5089237;28;20498;-49
2023/07/07 01:13:16;;;;;;;15.23;14.23;;;13.80;99.90;;;;;;5089414;28;20422;-46
2023/07/07 01:15:54;;;;;;;15.00;14.10;;;13.80;99.90;;;;;;5086794;28;20203;-49
2023/07/07 01:18:41;;;;;;;15.40;14.30;;;13.80;99.90;;;;;;5089233;28;20233;-48
2023/07/07 01:21:17;;;;;;;14.83;13.93;;;13.80;99.90;;;;;;5088790;28;20398;-51
2023/07/07 01:24:24;;;;;;;14.93;14.03;;;13.80;99.90;;;;;;5088876;28;20442;-46
2023/07/07 01:27:32;;;;;;;15.03;14.13;;;13.70;99.90;;;;;;5045951;28;20876;-49
2023/07/07 01:30:23;;;;;;;15.83;14.77;;;13.70;99.90;;;;;;5045895;28;20952;-49
2023/07/07 01:32:49;;;;;;;15.40;14.50;;;13.70;99.90;;;;;;5032543;28;20567;-50
2023/07/07 01:35:19;;;;;;;15.30;14.40;;;13.60;99.90;;;;;;5025959;28;20822;-50
2023/07/07 01:37:59;;;;;;;14.90;14.10;;;13.60;1.00;;;;;;5025912;28;20500;-49
2023/07/07 01:40:51;;;;;;;15.03;14.03;;;13.50;1.00;;;;;;5026125;28;20433;-48
2023/07/07 01:43:26;;;;;;;15.00;14.20;;;13.50;1.00;;;;;;5025935;28;20999;-51
2023/07/07 01:46:22;;;;;;;15.30;14.40;;;13.40;1.00;;;;;;5025780;28;20413;-47
2023/07/07 01:48:58;;;;;;;15.10;14.10;;;13.40;1.00;;;;;;5026079;28;20425;-52
2023/07/07 01:51:28;;;;;;;14.90;14.00;;;13.40;1.00;;;;;;5025951;28;21023;-45
2023/07/07 01:53:55;;;;;;;15.23;14.17;;;13.30;1.00;;;;;;5026119;28;20422;-49
2023/07/07 01:56:24;;;;;;;14.43;13.63;;;13.30;1.00;;;;;;5026086;28;20428;-49
2023/07/07 01:58:50;;;;;;;15.10;14.20;;;13.30;1.00;;;;;;5078813;28;20909;-46
2023/07/07 02:01:17;;;;;;;15.67;14.67;;;13.30;1.00;;;;;;5078547;28;20958;-51
2023/07/07 02:03:44;;;;;;;15.97;14.90;;;13.20;1.00;;;;;;5088739;28;20425;-49
2023/07/07 02:06:09;;;;;;;15.33;14.47;;;13.20;1.00;;;;;;5088513;28;20756;-50
2023/07/07 02:08:35;;;;;;;15.30;14.37;;;13.20;1.00;;;;;;5088698;28;20414;-51
2023/07/07 02:11:00;;;;;;;15.80;14.80;;;13.10;1.00;;;;;;5088887;28;20187;-49
2023/07/07 02:13:26;;;;;;;15.40;14.50;;;13.20;1.00;;;;;;5088372;28;20259;-47
2023/07/07 02:15:52;;;;;;;15.70;14.67;;;13.10;1.00;;;;;;5088417;28;20179;-49
2023/07/07 02:18:18;;;;;;;15.50;14.60;;;13.10;1.00;;;;;;5088273;28;20180;-51
2023/07/07 02:20:44;;;;;;;15.77;14.73;;;13.10;1.00;;;;;;5088503;28;20652;-49
2023/07/07 02:23:10;;;;;;;15.60;14.70;;;13.00;1.00;;;;;;5088174;28;20450;-50
2023/07/07 02:25:35;;;;;;;15.20;14.30;;;13.00;1.00;;;;;;5088197;28;20232;-49
2023/07/07 02:28:01;;;;;;;15.60;14.60;;;13.00;1.00;;;;;;5092020;28;20204;-47
2023/07/07 02:30:26;;;;;;;15.40;14.40;;;12.90;1.00;;;;;;5092284;28;20634;-48
2023/07/07 02:32:52;;;;;;;15.77;14.67;;;12.90;1.00;;;;;;5091998;28;20289;-48
2023/07/07 02:35:18;;;;;;;15.60;14.67;;;12.90;1.00;;;;;;5092150;28;20927;-48
2023/07/07 02:37:43;;;;;;;15.33;13.80;;;12.90;1.00;;;;;;5092048;28;20181;-49
2023/07/07 02:40:09;;;;;;;15.10;14.20;;;12.80;1.00;;;;;;5092125;28;20176;-47
2023/07/07 02:42:35;;;;;;;15.40;14.40;;;12.80;1.00;;;;;;5092035;28;20306;-46
2023/07/07 02:45:01;;;;;;;14.40;13.60;;;12.80;1.00;;;;;;5092323;28;20596;-47
2023/07/07 02:47:28;;;;;;;15.00;14.00;;;12.80;1.00;;;;;;5078256;28;20419;-42
2023/07/07 02:49:54;;;;;;;16.40;14.90;;;12.70;1.00;;;;;;5092095;28;20415;-43
2023/07/07 02:52:20;;;;;;;15.07;14.07;;;12.70;1.00;;;;;;5092054;28;20955;-43
2023/07/07 02:54:45;;;;;;;15.80;14.80;;;12.70;1.00;;;;;;5082314;28;20697;-45
2023/07/07 02:57:11;;;;;;;15.60;14.50;;;12.60;1.00;;;;;;5091667;28;20185;-44
2023/07/07 02:59:37;;;;;;;15.17;14.07;;;12.60;1.00;;;;;;5087246;28;20201;-45
2023/07/07 03:02:02;;;;;;;15.17;14.17;;;12.60;1.00;;;;;;5086120;28;20200;-47
2023/07/07 03:04:28;;;;;;;15.70;14.70;;;12.60;1.00;;;;;;5091512;28;20245;-49
2023/07/07 03:06:54;;;;;;;15.70;14.70;;;12.60;1.00;;;;;;5091552;28;20540;-47
2023/07/07 03:09:19;;;;;;;15.70;14.70;;;12.60;1.00;;;;;;5091399;28;20180;-44
2023/07/07 03:11:45;;;;;;;15.73;14.73;;;12.60;1.00;;;;;;5091294;28;20191;-47
2023/07/07 03:14:11;;;;;;;15.40;14.40;;;12.60;1.00;;;;;;5089917;28;20212;-48
2023/07/07 03:16:46;;;;;;;15.90;14.90;;;12.50;1.00;;;;;;5091393;28;20259;-42
2023/07/07 03:19:12;;;;;;;16.20;15.20;;;12.50;1.00;;;;;;5091518;28;20194;-43
2023/07/07 03:21:38;;;;;;;16.60;15.50;;;12.50;1.00;;;;;;5091135;28;20450;-45
2023/07/07 03:24:04;;;;;;;16.00;15.00;;;12.50;1.00;;;;;;5090951;28;20181;-49
2023/07/07 03:26:30;;;;;;;15.90;14.90;;;12.50;1.00;;;;;;5091371;28;20421;-49
2023/07/07 03:28:55;;;;;;;15.80;14.80;;;12.50;1.00;;;;;;5091183;28;20414;-45
2023/07/07 03:31:24;;;;;;;16.10;15.07;;;12.50;1.00;;;;;;5090887;28;20259;-43
2023/07/07 03:33:52;;;;;;;15.63;14.63;;;12.50;1.00;;;;;;5091116;28;20188;-42
2023/07/07 03:36:23;;;;;;;15.50;14.30;;;12.50;1.00;;;;;;5090870;28;20833;-43
2023/07/07 03:38:49;;;;;;;16.37;15.17;;;12.50;1.00;;;;;;5090131;28;20987;-49
2023/07/07 03:41:21;;;;;;;15.20;14.20;;;12.50;1.00;;;;;;5090760;28;20537;-47
2023/07/07 03:43:47;;;;;;;15.87;14.87;;;12.50;1.00;;;;;;5091112;28;21330;-45
2023/07/07 03:46:18;;;;;;;15.53;14.47;;;12.50;1.00;;;;;;5086618;28;20771;-46
2023/07/07 03:48:45;;;;;;;15.70;14.60;;;12.50;1.00;;;;;;5082504;28;20956;-47
2023/07/07 03:51:12;;;;;;;15.97;14.87;;;12.50;1.00;;;;;;5090500;28;20422;-44
2023/07/07 03:53:38;;;;;;;15.73;14.70;;;12.50;1.00;;;;;;5082237;28;20478;-43
2023/07/07 03:56:05;;;;;;;16.37;15.27;;;12.40;1.00;;;;;;5089622;28;20812;-43
2023/07/07 03:58:31;;;;;;;15.73;14.73;;;12.40;1.00;;;;;;5089220;28;20720;-46
2023/07/07 04:01:04;;;;;;;15.80;14.70;;;12.50;1.00;;;;;;5080462;28;20483;-44
2023/07/07 04:03:30;;;;;;;15.40;14.50;;;12.50;1.00;;;;;;5090043;28;20421;-43
2023/07/07 04:05:57;;;;;;;15.13;14.23;;;12.50;1.00;;;;;;5090467;28;20414;-46
2023/07/07 04:08:24;;;;;;;15.87;14.80;;;12.50;1.00;;;;;;5090252;28;20446;-45
2023/07/07 04:11:04;;;;;;;15.13;14.13;;;12.50;1.00;;;;;;5090256;28;20896;-50
2023/07/07 04:13:31;;;;;;;15.67;14.47;;;12.40;1.00;;;;;;5090117;28;20414;-48
2023/07/07 04:16:09;;;;;;;15.90;14.90;;;12.50;1.00;;;;;;5090117;28;20457;-45
2023/07/07 04:18:35;;;;;;;15.43;14.33;;;12.50;1.00;;;;;;5088712;28;20426;-45
2023/07/07 04:21:06;;;;;;;15.50;14.50;;;12.50;1.00;;;;;;5090117;28;20830;-51
2023/07/07 04:23:32;;;;;;;15.97;14.77;;;12.50;1.00;;;;;;5090023;28;20843;-44
2023/07/07 04:25:58;;;;;;;16.03;15.00;;;12.60;1.00;;;;;;5089901;28;20470;-47
2023/07/07 04:28:24;;;;;;;16.73;15.63;;;12.60;1.00;;;;;;5090298;28;20414;-42
2023/07/07 04:30:55;;;;;;;15.73;14.73;;;12.60;1.00;;;;;;5089853;28;20181;-46
2023/07/07 04:33:22;;;;;;;15.67;14.67;;;12.60;1.00;;;;;;5089793;28;20882;-45
2023/07/07 04:35:56;;;;;;;14.80;13.90;;;12.70;1.00;;;;;;5089582;28;20456;-41
2023/07/07 04:38:30;;;;;;;16.87;15.57;;;12.70;1.00;;;;;;5090041;28;20418;-47
2023/07/07 04:41:04;;;;;;;16.30;15.20;;;12.70;1.00;;;;;;5089753;28;20449;-43
2023/07/07 04:43:30;;;;;;;15.53;14.53;;;12.80;1.00;;;;;;5090123;28;20759;-42
2023/07/07 04:45:55;;;;;;;15.80;14.80;;;12.80;1.00;;;;;;5087506;28;20406;-44
2023/07/07 04:48:21;;;;;;;16.07;14.87;;;12.90;1.00;;;;;;5078059;28;20433;-47
2023/07/07 04:50:47;;;;;;;16.07;15.03;;;13.00;1.00;;;;;;5089282;28;20697;-42
2023/07/07 04:53:12;;;;;;;16.43;15.33;;;13.00;1.00;;;;;;5084630;28;20216;-43
2023/07/07 04:55:43;;;;;;;15.93;14.80;;;13.10;1.00;;;;;;5084474;28;20188;-45
2023/07/07 04:58:09;;;;;;;16.60;15.50;;;13.10;1.00;;;;;;5089479;28;20185;-43
2023/07/07 05:00:35;;;;;;;17.90;16.30;;;13.20;1.00;;;;;;5078805;28;20909;-44
2023/07/07 05:03:01;;;;;;;16.47;15.30;;;13.30;1.00;;;;;;5089471;28;21034;-47
2023/07/07 05:05:26;;;;;;;15.97;14.80;;;13.40;1.00;;;;;;5086667;28;20434;-48
2023/07/07 05:07:52;;;;;;;15.73;14.57;;;13.40;1.00;;;;;;5077249;28;20705;-45
2023/07/07 05:10:18;;;;;;;16.43;15.30;;;13.40;1.00;;;;;;5088968;28;20211;-46
2023/07/07 05:12:43;;;;;;;15.63;14.50;;;13.60;99.90;;;;;;5087756;28;20673;-53
2023/07/07 05:15:09;;;;;;;16.30;15.00;;;13.60;99.90;;;;;;5089478;28;20638;-49
2023/07/07 05:17:35;;;;;;;15.03;14.03;;;13.70;99.90;;;;;;5089415;28;20186;-52
2023/07/07 05:20:00;;;;;;;16.60;15.27;;;13.80;99.90;;;;;;5089143;28;20468;-52
2023/07/07 05:22:26;;;;;;;15.97;14.80;;;13.80;99.90;;;;;;5088966;28;20208;-52
2023/07/07 05:24:51;;;;;;;15.70;14.70;;;13.90;75.50;;;;;;5087350;28;20232;-53
2023/07/07 05:27:17;;;;;;;15.87;14.77;;;14.00;74.60;;;;;;5088949;28;20709;-52
2023/07/07 05:29:42;;;;;;;14.80;13.80;;;14.00;1.00;;;;;;5089109;28;20177;-47
2023/07/07 05:32:08;;;;;;;15.80;14.90;;;14.10;99.90;;;;;;5083248;28;20230;-51
2023/07/07 05:34:34;;;;;;;15.53;14.53;;;14.20;99.90;;;;;;5080372;28;20173;-50
2023/07/07 05:36:59;;;;;;;15.70;14.70;;;14.30;99.90;;;;;;5088585;28;20627;-47
2023/07/07 05:39:25;;;;;;;15.70;14.70;;;14.40;1.00;;;;;;5088523;28;20184;-47
2023/07/07 05:41:50;;;;;;;14.93;14.03;;;14.50;99.90;;;;;;5088602;28;20208;-53
2023/07/07 05:44:16;;;;;;;14.77;13.77;;;14.60;99.90;;;;;;5088727;28;20204;-48
2023/07/07 05:46:43;;;;;;;16.40;15.30;;;14.70;99.90;;;;;;5080346;28;20176;-51
2023/07/07 05:49:08;;;;;;;15.30;14.30;;;14.80;99.90;;;;;;5083791;28;20263;-50
2023/07/07 05:51:34;;;;;;;16.00;15.10;;;14.90;99.90;;;;;;5088554;28;20505;-52
2023/07/07 05:53:59;;;;;;;15.90;14.90;;;15.00;99.90;;;;;;5078938;28;20536;-50
2023/07/07 05:56:25;;;;;;;15.17;14.17;;;15.10;99.90;;;;;;5088721;28;20191;-50
2023/07/07 05:58:53;;;;;;;15.37;14.40;;;15.20;99.90;;;;;;5087249;28;20659;-51
2023/07/07 06:01:19;;;;;;;15.07;14.13;;;15.30;99.90;;;;;;5079209;28;20935;-50
2023/07/07 06:03:45;;;;;;;15.87;14.97;;;15.50;99.90;;;;;;5092657;28;20660;-47
2023/07/07 06:06:11;;;;;;;14.87;14.07;;;15.60;99.90;;;;;;5092651;28;20644;-48
2023/07/07 06:08:39;;;;;;;15.07;14.17;;;15.70;99.90;;;;;;5092509;28;20912;-52
2023/07/07 06:11:04;;;;;;;16.30;15.10;;;15.80;99.90;;;;;;5092481;28;20464;-52
2023/07/07 06:13:30;;;;;;;14.80;14.00;;;16.00;99.90;;;;;;5092452;28;20446;-49
2023/07/07 06:15:56;;;;;;;15.53;14.47;;;16.00;99.90;;;;;;5092422;28;20707;-47
2023/07/07 06:18:22;;;;;;;15.10;14.20;;;16.20;99.90;;;;;;5092489;28;20179;-50
2023/07/07 06:20:49;;;;;;;14.80;14.00;;;16.40;99.90;;;;;;5092382;28;20233;-53
2023/07/07 06:23:15;;;;;;;15.50;14.60;;;16.40;99.90;;;;;;5091994;28;20815;-51
2023/07/07 06:25:41;;;;;;;14.90;13.80;;;16.50;99.90;;;;;;5092146;28;20466;-47
2023/07/07 06:28:06;;;;;;;14.33;13.43;;;16.60;99.90;;;;;;5092016;28;20425;-49
2023/07/07 06:30:32;;;;;;;15.00;14.10;;;16.60;99.90;;;;;;5092257;28;20184;-43
2023/07/07 06:32:58;;;;;;;15.77;14.57;;;16.70;99.90;;;;;;5092204;28;20251;-48
2023/07/07 06:35:25;;;;;;;16.10;15.20;;;16.80;99.90;;;;;;5092124;28;20184;-44
2023/07/07 06:37:51;;;;;;;14.57;13.67;;;16.90;99.90;;;;;;5089447;28;20410;-47
2023/07/07 06:40:16;;;;;;;14.43;13.47;;;17.00;99.90;;;;;;5071716;28;20480;-44
2023/07/07 06:42:42;;;;;;;15.50;14.50;;;17.10;99.90;;;;;;5085206;28;20231;-44
2023/07/07 06:45:08;;;;;;;15.07;14.13;;;17.30;99.90;;;;;;5091921;28;20181;-48
2023/07/07 06:47:34;;;;;;;15.10;14.20;;;17.40;99.90;;;;;;5078356;28;20211;-46
2023/07/07 06:49:59;;;;;;;14.80;13.90;;;17.50;99.90;;;;;;5092129;28;20551;-50
2023/07/07 06:52:25;;;;;;;14.80;13.90;;;17.60;99.90;;;;;;5092079;28;20186;-47
2023/07/07 06:54:54;;;;;;;16.07;15.00;;;17.70;99.90;;;;;;5081738;28;20234;-48
2023/07/07 06:57:22;;;;;;;15.40;14.50;;;17.90;99.90;;;;;;5092032;28;20658;-43
2023/07/07 06:59:47;;;;;;;14.10;13.40;;;18.00;99.90;;;;;;5085869;28;20419;-44
2023/07/07 07:02:13;;;;;;;13.90;13.07;;;18.10;99.90;;;;;;5087626;28;20527;-46
2023/07/07 07:04:40;;;;;;;14.87;14.00;;;18.30;99.90;;;;;;5091663;28;20657;-43
2023/07/07 07:07:07;;;;;;;14.90;13.97;;;18.40;99.80;;;;;;5091324;28;20176;-45
2023/07/07 07:09:33;;;;;;;15.50;14.60;;;18.50;99.60;;;;;;5091828;28;20421;-47
2023/07/07 07:11:59;;;;;;;15.10;14.30;;;18.70;99.20;;;;;;5090952;28;20419;-47
2023/07/07 07:14:24;;;;;;;14.27;13.47;;;18.80;98.90;;;;;;5090525;28;20638;-45
2023/07/07 07:16:50;;;;;;;15.13;14.27;;;19.00;98.30;;;;;;5091494;28;20228;-44
2023/07/07 07:19:15;;;;;;;15.03;13.93;;;19.10;98.00;;;;;;5091119;28;20227;-43
2023/07/07 07:21:41;;;;;;;14.43;13.53;;;19.30;97.60;;;;;;5091039;28;20200;-46
2023/07/07 07:24:06;;;;;;;14.93;14.07;;;19.40;95.70;;;;;;5090811;28;20169;-49
2023/07/07 07:26:32;;;;;;;13.93;13.13;;;19.60;95.70;;;;;;5091110;28;20654;-45
2023/07/07 07:28:58;;;;;;;14.87;13.97;;;19.70;95.30;;;;;;5091211;28;20177;-44
2023/07/07 07:31:24;;;;;;;14.80;14.10;;;19.90;94.20;;;;;;5091210;28;20590;-47
2023/07/07 07:33:53;;;;;;;14.63;13.80;;;20.10;93.90;;;;;;5091016;28;20187;-44
2023/07/07 07:36:21;;;;;;;14.00;13.20;;;20.20;93.40;;;;;;5090765;28;20415;-49
2023/07/07 07:38:47;;;;;;;14.20;13.50;;;20.30;93.00;;;;;;5090963;28;20426;-44
2023/07/07 07:41:13;;;;;;;14.57;13.77;;;20.50;92.70;;;;;;5091030;28;20783;-45
2023/07/07 07:43:38;;;;;;;14.33;13.63;;;20.60;92.10;;;;;;5090940;28;20446;-45
2023/07/07 07:46:04;;;;;;;13.47;12.77;;;20.70;91.80;;;;;;5087559;28;20183;-43
2023/07/07 07:48:30;;;;;;;14.50;13.60;;;20.90;91.90;;;;;;5080632;28;20184;-47
2023/07/07 07:50:55;;;;;;;14.00;13.20;;;21.10;90.50;;;;;;5090521;28;20523;-46
2023/07/07 07:53:22;;;;;;;14.67;13.70;;;21.30;84.80;;;;;;5084705;28;20200;-46
2023/07/07 07:55:48;;;;;;;13.63;12.90;;;21.50;85.40;;;;;;5087779;28;20180;-49
2023/07/07 07:58:13;;;;;;;14.53;13.73;;;21.60;83.20;;;;;;5091135;28;20423;-43
2023/07/07 08:00:39;;;;;;;14.40;13.60;;;21.70;82.30;;;;;;5080783;28;20189;-44
2023/07/07 08:03:04;;;;;;;13.33;12.63;;;21.90;83.10;;;;;;5090370;28;20361;-47
2023/07/07 08:05:31;;;;;;;13.07;12.37;;;22.10;83.00;;;;;;5090249;28;20179;-50
2023/07/07 08:07:57;;;;;;;13.63;12.83;;;22.20;80.70;;;;;;5090455;28;20249;-45
2023/07/07 08:10:23;;;;;;;13.60;12.90;;;22.40;77.70;;;;;;5090150;28;20975;-49
2023/07/07 08:12:48;;;;;;;13.67;12.57;;;22.60;77.60;;;;;;5090301;28;20415;-45
2023/07/07 08:15:14;;;;;;;13.33;12.60;;;22.80;76.30;;;;;;5090267;28;20180;-45
2023/07/07 08:17:40;;;;;;;13.40;12.60;;;22.90;74.70;;;;;;5090098;28;20218;-45
2023/07/07 08:20:13;;;;;;;12.43;11.63;;;23.00;74.70;;;;;;5090094;28;20711;-44
2023/07/07 08:22:39;;;;;;;12.50;11.80;;;23.20;73.10;;;;;;5089890;28;20226;-45
2023/07/07 08:25:05;;;;;;;13.60;12.90;;;23.40;71.00;;;;;;5089172;28;20470;-46
2023/07/07 08:27:30;;;;;;;13.03;12.33;;;23.50;70.80;;;;;;5090008;28;20195;-46
2023/07/07 08:29:56;;;;;;;12.60;12.00;;;23.70;72.10;;;;;;5089860;28;20661;-46
2023/07/07 08:32:23;;;;;;;13.33;12.60;;;23.80;70.90;;;;;;5089784;28;20204;-46
2023/07/07 08:34:50;;;;;;;13.67;13.03;;;24.00;67.90;;;;;;5089754;28;20275;-49
2023/07/07 08:37:17;;;;;;;13.40;12.70;;;24.10;67.60;;;;;;5089944;28;20419;-44
2023/07/07 08:39:43;;;;;;;13.47;12.77;;;24.30;64.20;;;;;;5089558;28;20459;-42
2023/07/07 08:42:36;;;;;;;13.27;12.57;;;24.50;62.20;;;;;;5089567;28;20512;-46
2023/07/07 08:45:05;;;;;;;13.80;13.00;;;24.70;61.80;;;;;;5089789;28;20413;-47
2023/07/07 08:47:41;;;;;;;14.00;13.30;;;24.90;60.50;;;;;;5075857;28;20438;-43
2023/07/07 08:50:16;;;;;;;13.03;12.43;;;25.10;59.10;;;;;;5088247;28;20463;-47
2023/07/07 08:53:00;;;;;;;13.33;12.63;;;25.40;57.40;;;;;;5088732;28;20418;-43
2023/07/07 08:55:43;;;;;;;12.20;11.60;;;25.60;55.50;;;;;;5082798;28;20418;-47
2023/07/07 08:58:14;;;;;;;12.40;11.70;;;25.70;54.60;;;;;;5089334;28;20449;-46
2023/07/07 09:00:46;;;;;;;12.93;12.23;;;26.00;53.80;;;;;;5079298;28;21009;-46
2023/07/07 09:03:18;;;;;;;12.40;11.77;;;26.40;52.10;;;;;;5089270;28;20821;-50
2023/07/07 09:06:09;;;;;;;12.73;11.73;;;26.60;52.10;;;;;;5070614;28;20502;-45
2023/07/07 09:08:58;;;;;;;11.63;11.03;;;26.90;49.10;;;;;;5082910;28;20414;-46
2023/07/07 09:12:05;;;;;;;11.83;11.23;;;27.30;47.00;;;;;;5036548;28;20565;-47
2023/07/07 09:14:31;;;;;;;10.73;10.13;;;27.40;41.60;;;;;;5011159;28;20429;-46
2023/07/07 09:17:03;;;;;;;14.17;12.73;;;27.60;41.50;;;;;;5026289;28;20418;-46
2023/07/07 09:19:36;;;;;;;12.53;11.93;;;27.90;38.60;;;;;;5026454;28;20193;-54
2023/07/07 09:22:24;;;;;;;13.30;12.60;;;28.20;37.70;;;;;;5026180;28;20588;-43
2023/07/07 09:25:16;;;;;;;12.20;11.60;;;28.60;37.60;;;;;;5026117;28;20473;-48
2023/07/07 09:27:47;;;;;;;12.97;12.33;;;28.90;35.60;;;;;;5026256;28;20486;-48
2023/07/07 09:30:42;;;;;;;12.10;11.50;;;29.40;39.00;;;;;;5025985;28;20525;-46
2023/07/07 09:33:12;;;;;;;12.53;11.93;;;29.80;36.20;;;;;;5025664;28;20437;-43
2023/07/07 09:35:43;;;;;;;12.07;11.37;;;30.30;34.60;;;;;;5025347;28;20425;-46
2023/07/07 09:38:39;;;;;;;12.13;11.53;;;30.80;32.20;;;;;;5025951;28;20857;-48
2023/07/07 09:41:17;;;;;;;12.00;11.40;;;31.40;28.80;;;;;;5019345;28;20438;-44
2023/07/07 09:44:05;;;;;;;12.00;11.40;;;31.80;27.30;;;;;;5025881;28;20527;-50
2023/07/07 09:46:44;;;;;;;11.70;11.20;;;32.20;25.70;;;;;;5026327;28;20429;-45
2023/07/07 09:49:41;;;;;;;11.80;11.20;;;32.70;25.50;;;;;;5075199;28;20459;-48
2023/07/07 09:52:15;;;;;;;11.30;10.80;;;33.00;24.50;;;;;;5088785;28;20525;-46
2023/07/07 09:54:43;;;;;;;11.53;11.00;;;33.60;23.30;;;;;;5079279;28;20406;-43
2023/07/07 09:57:34;;;;;;;11.40;10.90;;;34.40;19.90;;;;;;5088288;28;20414;-48
2023/07/07 10:00:02;;;;;;;11.20;10.70;;;34.80;18.80;;;;;;5076184;28;20913;-46
2023/07/07 10:02:28;;;;;;;11.77;11.27;;;35.10;19.00;;;;;;5086457;28;20890;-45
2023/07/07 10:05:02;;;;;;;12.30;11.60;;;35.20;17.50;;;;;;5088545;28;20504;-48
2023/07/07 10:07:34;;;;;;;11.67;11.17;;;35.60;18.50;;;;;;5087161;28;20534;-47
2023/07/07 10:10:05;;;;;;;12.07;11.47;;;36.20;16.70;;;;;;5088452;28;20426;-45
2023/07/07 10:12:31;;;;;;;11.33;10.83;;;36.60;16.40;;;;;;5088256;28;20423;-45
2023/07/07 10:14:58;;;;;;;11.40;10.90;;;36.80;16.50;;;;;;5088548;28;20427;-47
2023/07/07 10:17:42;;;;;;;11.90;11.07;;;36.90;16.50;;;;;;5087009;28;20532;-45
2023/07/07 10:20:08;;;;;;;11.23;10.70;;;37.00;15.00;;;;;;5088272;28;20421;-46
2023/07/07 10:22:35;;;;;;;11.17;10.70;;;37.20;15.30;;;;;;5088500;28;20956;-50
2023/07/07 10:25:03;;;;;;;11.67;11.17;;;36.90;15.50;;;;;;5088155;28;20597;-45
2023/07/07 10:27:30;;;;;;;10.80;10.30;;;36.70;15.60;;;;;;5088103;28;20767;-51
2023/07/07 10:30:05;;;;;;;12.13;11.60;;;36.20;14.50;;;;;;5086843;28;20936;-45
2023/07/07 10:32:31;;;;;;;12.20;11.63;;;36.30;16.00;;;;;;5088209;28;20437;-44
2023/07/07 10:35:03;;;;;;;12.13;11.63;;;36.80;16.00;;;;;;5088172;28;20418;-48
2023/07/07 10:37:33;;;;;;;11.60;11.10;;;37.30;15.80;;;;;;5088584;28;20425;-48
2023/07/07 10:40:00;;;;;;;11.53;10.93;;;37.90;14.20;;;;;;5088202;28;21132;-47
2023/07/07 10:42:29;;;;;;;12.07;11.57;;;38.20;14.50;;;;;;5086536;28;20972;-47
2023/07/07 10:44:58;;;;;;;12.60;11.90;;;38.40;13.90;;;;;;5088052;28;20434;-49
2023/07/07 10:47:33;;;;;;;12.30;11.80;;;38.40;13.40;;;;;;5073578;28;20447;-53
2023/07/07 10:50:06;;;;;;;12.30;11.80;;;38.50;13.70;;;;;;5067462;28;20896;-47
2023/07/07 10:52:50;;;;;;;11.67;11.10;;;38.60;13.30;;;;;;5091963;28;20614;-51
2023/07/07 10:55:37;;;;;;;11.60;11.10;;;38.30;14.00;;;;;;5074970;28;20844;-49
2023/07/07 10:58:31;;;;;;;11.33;10.63;;;38.80;13.30;;;;;;5091540;28;20418;-45
2023/07/07 11:01:28;;;;;;;11.97;11.47;;;38.70;13.20;;;;;;5064660;28;20863;-45
2023/07/07 11:04:02;;;;;;;11.90;11.40;;;38.60;12.40;;;;;;5091539;28;20523;-47
2023/07/07 11:06:31;;;;;;;12.30;11.77;;;38.30;13.00;;;;;;5091401;28;20407;-47
2023/07/07 11:09:35;;;;;;;12.70;12.03;;;38.70;13.40;;;;;;5091502;28;20441;-47
2023/07/07 11:12:25;;;;;;;12.70;12.10;;;38.60;13.30;;;;;;5091373;28;20455;-47
2023/07/07 11:15:13;;;;;;;12.97;12.37;;;39.50;13.60;;;;;;5091285;28;20422;-50
2023/07/07 11:18:05;;;;;;;12.27;11.57;;;39.70;13.30;;;;;;5091313;28;20411;-48
2023/07/07 11:20:36;;;;;;;12.70;12.20;;;39.70;11.80;;;;;;5091527;28;20475;-49
2023/07/07 11:23:21;;;;;;;12.20;11.70;;;40.20;11.80;;;;;;5091054;28;20450;-50
2023/07/07 11:26:02;;;;;;;12.10;11.50;;;40.50;11.70;;;;;;5091142;28;20994;-48
2023/07/07 11:28:36;;;;;;;12.97;12.37;;;40.20;12.00;;;;;;5090913;28;20767;-47
2023/07/07 11:31:20;;;;;;;11.90;11.30;;;39.50;12.20;;;;;;5091624;28;20440;-49
2023/07/07 11:34:08;;;;;;;11.83;11.33;;;39.80;11.90;;;;;;5090959;28;20972;-48
2023/07/07 11:36:42;;;;;;;12.33;11.80;;;39.70;11.10;;;;;;5090887;28;20414;-49
2023/07/07 11:39:22;;;;;;;12.30;11.60;;;39.90;13.10;;;;;;5090924;28;20501;-48
2023/07/07 11:41:51;;;;;;;11.80;11.30;;;39.90;12.50;;;;;;5090933;28;21255;-51
2023/07/07 11:44:49;;;;;;;12.10;11.60;;;40.50;11.50;;;;;;5090517;28;20498;-47
2023/07/07 11:47:27;;;;;;;13.00;12.30;;;39.80;10.90;;;;;;5077896;28;20423;-48
2023/07/07 11:50:06;;;;;;;12.30;11.80;;;39.10;11.90;;;;;;5082296;28;20402;-46
2023/07/07 11:52:38;;;;;;;12.60;12.00;;;39.70;12.40;;;;;;5090649;28;20413;-49
2023/07/07 11:55:33;;;;;;;12.73;12.23;;;39.80;11.90;;;;;;5078760;28;20410;-50
2023/07/07 11:58:33;;;;;;;12.17;11.67;;;39.50;11.90;;;;;;5090852;28;20775;-51
2023/07/07 12:01:15;;;;;;;13.20;12.60;;;39.80;11.50;;;;;;5083662;28;20421;-50
2023/07/07 12:03:57;;;;;;;12.50;11.90;;;40.40;11.50;;;;;;5090553;28;20808;-47
2023/07/07 12:06:35;;;;;;;12.77;12.10;;;40.00;10.10;;;;;;5090709;28;20425;-47
2023/07/07 12:09:11;;;;;;;11.73;11.23;;;39.30;10.80;;;;;;5090176;28;20406;-45
2023/07/07 12:11:42;;;;;;;12.33;11.73;;;38.60;11.20;;;;;;5090323;28;20813;-52
2023/07/07 12:14:14;;;;;;;12.80;12.20;;;39.00;12.00;;;;;;5090106;28;20406;-49
2023/07/07 12:16:43;;;;;;;11.23;10.73;;;39.10;12.40;;;;;;5090281;28;20498;-46
2023/07/07 12:19:30;;;;;;;12.27;11.77;;;39.40;12.10;;;;;;5077728;28;20799;-51
2023/07/07 12:21:59;;;;;;;12.13;11.63;;;39.50;11.50;;;;;;5077705;28;20465;-50
2023/07/07 12:24:39;;;;;;;11.97;11.47;;;40.10;11.50;;;;;;5089962;28;20462;-52
2023/07/07 12:27:19;;;;;;;12.80;12.20;;;40.60;12.20;;;;;;5090135;28;20410;-52
2023/07/07 12:29:47;;;;;;;11.90;11.40;;;40.10;9.40;;;;;;5089757;28;20476;-49
2023/07/07 12:32:13;;;;;;;12.37;11.80;;;39.90;9.80;;;;;;5077234;28;20447;-51
2023/07/07 12:34:42;;;;;;;12.37;11.87;;;40.00;10.50;;;;;;5087701;28;20551;-52
2023/07/07 12:37:14;;;;;;;11.90;11.40;;;40.20;11.50;;;;;;5090390;28;20199;-51
2023/07/07 12:39:55;;;;;;;12.30;11.80;;;40.60;11.20;;;;;;5089730;28;20414;-48
2023/07/07 12:42:22;;;;;;;12.03;11.53;;;40.70;10.40;;;;;;5089722;28;20421;-51
2023/07/07 12:44:48;;;;;;;12.90;12.40;;;41.10;10.90;;;;;;5089668;28;20858;-49
2023/07/07 12:47:36;;;;;;;12.47;11.97;;;41.10;9.80;;;;;;5086226;28;20431;-46
2023/07/07 12:50:05;;;;;;;12.80;12.20;;;41.50;10.60;;;;;;5082602;28;20801;-49